Time;durP1;ratioP1;P1;durP2;ratioP2;P2;SDS_P1;SDS_P2;PMS_P1;PMS_P2;Temp;Humidity;BMP_temperature;BMP_pressure;BME280_temperature;BME280_humidity;BME280_pressure;Samples;Min_cycle;Max_cycle;Signal;HPM_P1;HPM_P2
2022/01/02 00:00:40;;;;;;;5.28;2.80;;;;;;;10.83;69.85;101527.31;5056865;28;20047;-75
2022/01/02 00:03:08;;;;;;;5.30;2.65;;;;;;;10.94;70.01;101509.84;5063487;28;20025;-75
2022/01/02 00:05:36;;;;;;;4.47;2.58;;;;;;;10.84;69.72;101508.25;5063271;28;20035;-75
2022/01/02 00:08:07;;;;;;;5.97;2.90;;;;;;;10.77;70.12;101507.44;5046053;28;20029;-75
2022/01/02 00:10:34;;;;;;;5.25;2.78;;;;;;;10.84;70.21;101508.25;5044702;28;20033;-75
2022/01/02 00:13:01;;;;;;;6.78;3.00;;;;;;;10.75;70.02;101524.81;5063377;28;20095;-75
2022/01/02 00:15:28;;;;;;;4.80;3.05;;;;;;;10.85;70.15;101507.38;5061571;28;20035;-75
2022/01/02 00:17:56;;;;;;;6.20;2.90;;;;;;;10.90;69.54;101497.78;5060410;28;20612;-75
2022/01/02 00:20:31;;;;;;;5.60;2.72;;;;;;;10.80;70.20;101499.63;5045637;28;20131;-75
2022/01/02 00:23:02;;;;;;;4.70;2.90;;;;;;;10.89;69.48;101489.13;5062309;28;20040;-75
2022/01/02 00:25:33;;;;;;;6.63;2.63;;;;;;;10.76;69.97;101473.69;5062611;28;20039;-75
2022/01/02 00:28:00;;;;;;;5.03;3.00;;;;;;;10.86;69.42;101459.69;5062447;28;20090;-75
2022/01/02 00:30:26;;;;;;;4.78;2.40;;;;;;;10.92;69.78;101463.09;5060045;28;20090;-75
2022/01/02 00:32:52;;;;;;;5.68;2.40;;;;;;;10.97;69.48;101473.44;5060731;28;21529;-75
2022/01/02 00:35:18;;;;;;;4.53;2.50;;;;;;;10.90;69.93;101467.47;5062251;28;20175;-75
2022/01/02 00:37:43;;;;;;;6.65;2.90;;;;;;;10.97;69.44;101463.03;5043814;28;20139;-75
2022/01/02 00:40:09;;;;;;;5.60;2.70;;;;;;;10.94;69.65;101471.72;5063315;28;20629;-75
2022/01/02 00:42:39;;;;;;;7.93;2.95;;;;;;;10.99;69.62;101474.28;5044814;28;21389;-75
2022/01/02 00:45:18;;;;;;;4.90;2.70;;;;;;;10.96;69.30;101474.31;5062797;28;21046;-75
2022/01/02 00:48:06;;;;;;;7.70;2.75;;;;;;;10.76;70.34;101484.09;5064650;28;20044;-75
2022/01/02 00:50:42;;;;;;;4.10;2.58;;;;;;;10.78;70.04;101513.50;5059418;28;20205;-75
2022/01/02 00:53:10;;;;;;;4.05;2.40;;;;;;;10.74;70.66;101520.47;5046922;28;20036;-75
2022/01/02 00:55:36;;;;;;;5.00;2.67;;;;;;;10.66;70.75;101516.22;5059932;28;20036;-75
2022/01/02 00:58:09;;;;;;;5.40;2.60;;;;;;;10.58;70.81;101518.03;5060848;28;20032;-75
2022/01/02 01:00:35;;;;;;;4.90;2.65;;;;;;;10.73;70.58;101516.13;5059886;28;20420;-75
2022/01/02 01:03:08;;;;;;;3.45;2.20;;;;;;;10.79;70.15;101510.03;5045894;28;20043;-75
2022/01/02 01:05:36;;;;;;;4.18;2.60;;;;;;;10.83;69.61;101511.72;5061417;28;20032;-75
2022/01/02 01:08:03;;;;;;;5.63;2.45;;;;;;;10.81;69.48;101513.47;5042422;28;20048;-75
2022/01/02 01:10:32;;;;;;;3.60;2.42;;;;;;;10.79;70.20;101510.03;5062332;28;20033;-75
2022/01/02 01:13:00;;;;;;;4.82;2.67;;;;;;;10.81;69.84;101498.75;5062357;28;20713;-75
2022/01/02 01:15:28;;;;;;;5.25;3.13;;;;;;;10.88;69.65;101494.31;5063152;28;20644;-75
2022/01/02 01:17:55;;;;;;;7.00;2.95;;;;;;;10.89;69.25;101491.72;5062140;28;20158;-75
2022/01/02 01:20:23;;;;;;;5.72;2.60;;;;;;;10.90;69.22;101503.00;5042280;28;20040;-75
2022/01/02 01:22:49;;;;;;;5.82;3.08;;;;;;;10.86;68.96;101509.09;5060593;28;20734;-75
2022/01/02 01:25:17;;;;;;;7.03;3.50;;;;;;;10.80;69.81;101499.63;5060693;28;20098;-75
2022/01/02 01:27:47;;;;;;;4.63;2.88;;;;;;;10.96;69.30;101497.72;5059634;28;20048;-75
2022/01/02 01:30:15;;;;;;;6.43;3.35;;;;;;;10.75;69.71;101503.16;5060737;28;21540;-75
2022/01/02 01:32:40;;;;;;;6.50;3.10;;;;;;;10.77;69.71;101501.38;5061977;28;20035;-75
2022/01/02 01:35:07;;;;;;;5.60;2.80;;;;;;;10.87;69.36;101505.63;5062259;28;20037;-75
2022/01/02 01:37:33;;;;;;;5.82;2.97;;;;;;;10.92;69.39;101506.41;5059558;28;20105;-75
2022/01/02 01:39:59;;;;;;;6.55;3.40;;;;;;;10.90;69.00;101500.38;5062586;28;20040;-75
2022/01/02 01:42:35;;;;;;;5.13;2.95;;;;;;;10.95;68.96;101502.06;5060961;28;20037;-75
2022/01/02 01:47:46;;;;;;;4.85;2.83;;;;;;;10.95;69.15;101498.59;5060476;28;20527;-75
2022/01/02 01:50:12;;;;;;;6.35;2.63;;;;;;;10.93;69.09;101497.75;5058778;28;20033;-75
2022/01/02 01:52:38;;;;;;;6.35;3.35;;;;;;;11.01;68.96;101495.94;5061233;28;20028;-75
2022/01/02 01:55:07;;;;;;;5.35;3.30;;;;;;;10.96;69.08;101490.78;5059608;28;20048;-75
2022/01/02 01:57:33;;;;;;;4.72;2.83;;;;;;;11.05;68.92;101478.56;5060353;28;20032;-75
2022/01/02 01:59:59;;;;;;;5.32;3.08;;;;;;;11.01;69.26;101472.53;5058162;28;20032;-75
2022/01/02 02:02:25;;;;;;;5.80;3.22;;;;;;;11.02;68.88;101462.13;5060233;28;20524;-75
2022/01/02 02:04:50;;;;;;;5.97;3.25;;;;;;;10.95;69.32;101460.47;5040829;28;20043;-75
2022/01/02 02:07:16;;;;;;;5.43;3.08;;;;;;;11.01;69.05;101470.78;5059107;28;20054;-75
2022/01/02 02:10:11;;;;;;;6.57;3.00;;;;;;;10.94;69.60;101465.66;5060296;28;20041;-75
2022/01/02 02:12:28;;;;;;;7.35;3.45;;;;;;;10.97;69.12;101450.91;5059818;28;20130;-75
2022/01/02 02:14:55;;;;;;;5.25;2.83;;;;;;;10.96;69.38;101450.94;5060074;28;20048;-75
2022/01/02 02:17:20;;;;;;;5.60;2.97;;;;;;;10.85;69.67;101452.81;5056816;28;20090;-75
2022/01/02 02:19:48;;;;;;;5.85;3.40;;;;;;;10.92;69.04;101455.31;5040657;28;20436;-75
2022/01/02 02:22:14;;;;;;;5.97;3.53;;;;;;;10.90;69.87;101456.19;5058912;28;20048;-75
2022/01/02 02:24:40;;;;;;;6.32;3.50;;;;;;;10.77;69.86;101455.47;5042007;28;20472;-75
2022/01/02 02:27:06;;;;;;;7.65;3.83;;;;;;;10.70;69.87;101452.97;5060037;28;20056;-75
2022/01/02 02:29:32;;;;;;;5.35;3.50;;;;;;;10.86;69.59;101444.09;5041979;28;20074;-75
2022/01/02 02:31:58;;;;;;;5.70;3.25;;;;;;;10.80;69.48;101442.44;5059800;28;20032;-75
2022/01/02 02:34:24;;;;;;;7.82;3.78;;;;;;;10.79;69.36;101439.88;5058623;28;20093;-77
2022/01/02 02:36:49;;;;;;;6.55;3.35;;;;;;;10.76;70.11;101437.31;5057846;28;20041;-77
2022/01/02 02:39:15;;;;;;;6.82;3.33;;;;;;;10.86;69.53;101436.31;5059500;28;20044;-77
2022/01/02 02:41:42;;;;;;;6.18;3.58;;;;;;;10.86;69.60;101431.09;5018021;28;20428;-77
2022/01/02 02:44:19;;;;;;;6.03;3.15;;;;;;;10.75;70.01;101432.97;5057419;28;20043;-77
2022/01/02 02:49:29;;;;;;;5.97;3.03;;;;;;;10.82;69.73;101413.84;5059199;28;20048;-77
2022/01/02 02:52:01;;;;;;;5.95;3.50;;;;;;;10.89;69.78;101405.94;5057430;28;20099;-77
2022/01/02 02:54:29;;;;;;;8.43;4.15;;;;;;;10.94;69.01;101388.53;5041825;28;20036;-77
2022/01/02 07:42:01;;;;;;;3.97;2.40;;;;;;;10.90;69.16;101094.91;5060420;28;20600;-80
2022/01/02 07:44:27;;;;;;;4.75;2.45;;;;;;;10.87;68.80;101087.16;5065016;28;20067;-80
2022/01/02 07:46:52;;;;;;;4.97;2.88;;;;;;;10.83;68.93;101075.09;5063309;28;20049;-80
2022/01/02 07:49:18;;;;;;;16.27;6.55;;;;;;;10.79;68.91;101061.28;5062217;28;20085;-80
2022/01/02 07:51:43;;;;;;;7.28;4.05;;;;;;;10.73;68.53;101058.81;5072243;28;20044;-80
2022/01/02 07:54:12;;;;;;;4.05;2.85;;;;;;;10.79;68.69;101052.66;5050384;28;20424;-80
2022/01/02 07:56:37;;;;;;;6.55;3.30;;;;;;;10.79;68.85;101050.91;5071790;28;20041;-80
2022/01/02 07:59:03;;;;;;;4.95;2.92;;;;;;;10.74;68.43;101047.53;5062145;28;20094;-80
2022/01/02 08:01:28;;;;;;;4.97;2.80;;;;;;;10.71;69.11;101041.53;5067249;28;20036;-80
2022/01/02 08:03:54;;;;;;;3.45;2.20;;;;;;;10.78;68.53;101044.00;5068786;28;20086;-80
2022/01/02 08:06:19;;;;;;;6.45;2.78;;;;;;;10.66;69.06;101038.16;5066727;28;20112;-80
2022/01/02 08:08:45;;;;;;;4.45;2.30;;;;;;;10.79;67.92;101022.31;5068616;28;20059;-80
2022/01/02 08:11:12;;;;;;;6.00;2.45;;;;;;;10.81;68.09;101012.78;5066620;28;20390;-80
2022/01/02 08:13:37;;;;;;;3.45;2.22;;;;;;;10.77;68.06;101005.03;5050720;28;20141;-80
2022/01/02 08:16:03;;;;;;;5.72;2.78;;;;;;;10.90;67.42;100993.56;5069340;28;20048;-80
2022/01/02 08:18:28;;;;;;;4.60;2.50;;;;;;;10.88;67.42;100990.09;5054545;28;20036;-80
2022/01/02 08:20:54;;;;;;;5.00;2.83;;;;;;;10.87;67.27;100981.47;5068062;28;20031;-80
2022/01/02 08:23:19;;;;;;;4.43;2.03;;;;;;;10.93;67.39;100980.50;5069082;28;20055;-80
2022/01/02 08:25:45;;;;;;;4.18;2.13;;;;;;;10.86;67.42;100989.28;5061930;28;20560;-80
2022/01/02 08:28:10;;;;;;;3.33;1.80;;;;;;;10.76;66.73;100995.56;5066138;28;20078;-80
2022/01/02 08:30:35;;;;;;;3.90;2.13;;;;;;;10.74;67.49;100994.69;5072153;28;20893;-80
2022/01/02 08:33:01;;;;;;;3.47;1.98;;;;;;;10.82;66.58;100998.88;5070145;28;20032;-80
2022/01/02 08:35:26;;;;;;;4.35;2.33;;;;;;;10.86;66.07;100999.69;5069806;28;20025;-80
2022/01/02 08:37:52;;;;;;;3.55;2.10;;;;;;;10.84;66.69;100994.53;5069491;28;20056;-80
2022/01/02 08:40:17;;;;;;;3.58;2.08;;;;;;;10.92;66.59;100989.16;5050904;28;20032;-80
2022/01/02 08:42:43;;;;;;;7.30;2.80;;;;;;;10.92;67.11;100974.44;5070220;28;20133;-80
2022/01/02 08:45:09;;;;;;;3.65;1.85;;;;;;;10.93;65.52;100964.91;5046473;28;20098;-80
2022/01/02 08:47:35;;;;;;;2.50;1.70;;;;;;;10.86;65.74;100958.97;5071613;28;20131;-80
2022/01/02 08:50:01;;;;;;;3.38;1.70;;;;;;;10.97;64.84;100933.59;5044851;28;20032;-80
2022/01/02 08:52:27;;;;;;;4.28;1.95;;;;;;;10.98;64.01;100939.66;5043905;28;20028;-80
2022/01/02 08:54:52;;;;;;;2.70;1.67;;;;;;;11.01;65.00;100944.81;5052323;28;20531;-80
2022/01/02 08:57:18;;;;;;;3.92;2.00;;;;;;;10.86;67.24;100945.09;5052318;28;20090;-80
2022/01/02 08:59:44;;;;;;;5.35;1.85;;;;;;;10.92;67.31;100927.66;5070449;28;20043;-80
2022/01/02 09:02:09;;;;;;;2.83;1.90;;;;;;;10.87;67.68;100932.09;5064995;28;20048;-80
2022/01/02 09:04:35;;;;;;;2.80;1.70;;;;;;;10.78;67.52;100937.47;5067478;28;20036;-80
2022/01/02 09:07:01;;;;;;;2.90;1.88;;;;;;;10.88;67.15;100941.59;5068748;28;20048;-80
2022/01/02 09:09:27;;;;;;;2.67;1.60;;;;;;;10.84;67.41;100955.53;5066735;28;20035;-80
2022/01/02 09:11:53;;;;;;;4.75;1.88;;;;;;;10.78;68.13;100962.59;5070893;28;20121;-80
2022/01/02 09:14:19;;;;;;;4.03;1.88;;;;;;;10.76;67.94;100960.00;5070563;28;20058;-80
2022/01/02 09:16:44;;;;;;;3.47;1.85;;;;;;;10.79;67.82;100949.56;5041856;28;20059;-80
2022/01/02 09:19:10;;;;;;;2.97;1.65;;;;;;;10.89;65.45;100940.72;5059926;28;20036;-80
2022/01/02 09:21:37;;;;;;;2.50;1.45;;;;;;;10.75;64.29;100970.44;5059258;28;20044;-80
2022/01/02 09:24:03;;;;;;;5.07;2.00;;;;;;;10.82;64.75;100972.06;5040463;28;20024;-81
2022/01/02 09:26:29;;;;;;;3.78;1.38;;;;;;;10.84;64.77;100975.47;5068433;28;20062;-81
2022/01/02 09:28:55;;;;;;;1.42;1.27;;;;;;;10.86;63.88;100982.34;5044317;28;20040;-81
2022/01/02 09:31:21;;;;;;;3.17;1.20;;;;;;;10.83;63.19;100985.00;5052927;28;20484;-81
2022/01/02 09:33:47;;;;;;;3.33;1.65;;;;;;;10.85;63.56;100988.41;5061104;28;20036;-80
2022/01/02 09:36:12;;;;;;;3.00;1.42;;;;;;;10.74;63.24;100972.19;5043225;28;20032;-77
2022/01/02 09:38:38;;;;;;;2.20;1.30;;;;;;;10.89;63.80;100982.28;5064873;28;20432;-84
2022/01/02 09:41:05;;;;;;;2.67;1.58;;;;;;;10.96;63.75;100980.44;5067060;28;20094;-84
2022/01/02 09:43:30;;;;;;;2.83;1.45;;;;;;;10.82;63.73;100970.28;5069833;28;20037;-83
2022/01/02 09:45:56;;;;;;;3.63;1.70;;;;;;;11.07;62.79;100952.50;5065003;28;20059;-84
2022/01/02 09:48:22;;;;;;;4.85;1.50;;;;;;;11.01;63.70;100944.81;5042765;28;20041;-83
2022/01/02 09:50:50;;;;;;;5.25;1.35;;;;;;;11.01;63.07;100932.69;5064668;28;20551;-83
2022/01/02 09:53:15;;;;;;;2.45;1.38;;;;;;;11.20;62.80;100937.50;5040002;28;20079;-85
2022/01/02 09:55:41;;;;;;;3.08;1.75;;;;;;;11.03;62.81;100948.22;5068512;28;20045;-83
2022/01/02 09:58:11;;;;;;;3.20;2.10;;;;;;;11.12;62.46;100945.44;5070409;28;20041;-83
2022/01/02 10:00:38;;;;;;;2.72;1.73;;;;;;;11.00;63.60;100943.94;5044392;28;20039;-83
2022/01/02 10:03:07;;;;;;;3.58;2.03;;;;;;;11.11;62.64;100951.56;5045798;28;20071;-83
2022/01/02 10:05:54;;;;;;;3.17;1.77;;;;;;;11.17;63.17;100963.56;5063405;28;20043;-84
2022/01/02 10:08:20;;;;;;;2.90;1.90;;;;;;;11.17;63.92;100967.03;5062139;28;20044;-84
2022/01/02 10:10:46;;;;;;;3.40;1.67;;;;;;;11.20;62.57;100958.31;5062818;28;20150;-83
2022/01/02 10:13:11;;;;;;;2.88;1.88;;;;;;;11.18;63.91;100970.47;5070855;28;20116;-84
2022/01/02 10:15:37;;;;;;;5.10;1.70;;;;;;;11.17;62.72;100980.03;5054760;28;20121;-83
2022/01/02 10:18:06;;;;;;;4.20;1.65;;;;;;;11.19;63.90;100972.19;5037768;28;20040;-84
2022/01/02 10:20:39;;;;;;;3.40;1.75;;;;;;;11.17;62.79;100976.56;5064048;28;20134;-84
2022/01/02 10:23:20;;;;;;;4.15;1.90;;;;;;;11.18;61.29;100976.53;5068855;28;20149;-84
2022/01/02 10:25:45;;;;;;;4.82;2.75;;;;;;;11.21;61.64;100949.59;5069132;28;20051;-84
2022/01/02 10:28:26;;;;;;;7.07;2.13;;;;;;;11.26;62.00;100948.63;5064431;28;20040;-83
2022/01/02 10:30:55;;;;;;;2.47;1.75;;;;;;;11.27;62.08;100950.31;5066912;28;20507;-84
2022/01/02 10:33:21;;;;;;;6.78;1.52;;;;;;;11.28;61.84;100944.28;5064601;28;20040;-83
2022/01/02 10:35:47;;;;;;;5.10;1.90;;;;;;;11.37;61.00;100933.69;5042152;28;20123;-84
2022/01/02 10:38:17;;;;;;;3.70;2.00;;;;;;;11.35;62.90;100948.47;5051057;28;20051;-84
2022/01/02 10:40:43;;;;;;;4.15;1.63;;;;;;;11.39;61.95;100937.09;5042433;28;20032;-84
2022/01/02 10:43:24;;;;;;;2.90;1.58;;;;;;;11.52;61.98;100935.97;5050757;28;20110;-84
2022/01/02 10:45:53;;;;;;;4.00;2.10;;;;;;;11.60;61.64;100921.91;5063372;28;21335;-84
2022/01/02 10:48:34;;;;;;;5.28;2.35;;;;;;;11.68;62.79;100935.63;5067437;28;20037;-84
2022/01/02 10:51:01;;;;;;;4.05;1.92;;;;;;;11.69;62.46;100955.53;5038015;28;20032;-84
2022/01/02 10:53:27;;;;;;;3.67;1.92;;;;;;;11.67;63.90;100967.72;5038641;28;20083;-84
2022/01/02 10:55:53;;;;;;;5.15;2.10;;;;;;;11.74;62.60;100953.69;5044260;28;20564;-84
2022/01/02 10:58:18;;;;;;;4.63;1.90;;;;;;;11.81;62.61;100937.03;5052311;28;20037;-84
2022/01/02 11:00:44;;;;;;;5.05;2.40;;;;;;;11.74;63.36;100931.09;5041658;28;20131;-84
2022/01/02 11:03:12;;;;;;;4.40;2.47;;;;;;;11.86;63.76;100928.22;5057041;28;20036;-84
2022/01/02 11:05:41;;;;;;;3.67;2.17;;;;;;;11.85;63.18;100926.53;5039515;28;20036;-84
2022/01/02 11:08:07;;;;;;;5.15;1.75;;;;;;;11.96;61.43;100919.31;5068859;28;20646;-84
2022/01/02 11:10:35;;;;;;;5.20;2.20;;;;;;;11.95;60.91;100914.97;5061245;28;20059;-83
2022/01/02 11:13:03;;;;;;;3.50;1.88;;;;;;;11.86;61.73;100920.41;5061699;28;20040;-84
2022/01/02 11:15:29;;;;;;;7.15;2.60;;;;;;;11.94;60.57;100918.50;5064444;28;20074;-84
2022/01/02 11:17:56;;;;;;;9.18;4.57;;;;;;;11.79;62.08;100916.25;5064278;28;20067;-84
2022/01/02 11:20:27;;;;;;;20.15;7.50;;;;;;;11.78;62.25;100927.53;5051281;28;20044;-84
2022/01/02 11:22:57;;;;;;;24.05;9.00;;;;;;;11.82;62.09;100937.00;5068708;28;20052;-83
2022/01/02 11:25:46;;;;;;;9.50;3.78;;;;;;;11.86;61.94;100937.78;5064861;28;20032;-84
2022/01/02 11:28:50;;;;;;;15.82;6.38;;;;;;;11.92;61.92;100941.09;5064015;28;20136;-84
2022/01/02 11:31:37;;;;;;;24.45;9.90;;;;;;;11.86;62.13;100936.03;5065183;28;20051;-84
2022/01/02 11:34:24;;;;;;;11.10;4.55;;;;;;;11.97;62.70;100943.59;5065378;28;20040;-84
2022/01/02 11:36:50;;;;;;;11.32;4.32;;;;;;;11.92;62.78;100943.69;5065528;28;20048;-83
2022/01/02 11:39:16;;;;;;;3.30;2.28;;;;;;;11.92;62.43;100941.09;5070163;28;20024;-84
2022/01/02 11:41:51;;;;;;;3.15;1.92;;;;;;;11.84;62.35;100944.75;5052848;28;20480;-84
2022/01/02 11:44:18;;;;;;;2.95;1.63;;;;;;;11.90;62.38;100936.81;5070073;28;20051;-84
2022/01/02 11:46:58;;;;;;;2.55;1.50;;;;;;;11.83;62.86;100935.25;5064840;28;20065;-84
2022/01/02 11:49:38;;;;;;;6.03;2.65;;;;;;;12.05;61.76;100936.44;5071333;28;20032;-84
2022/01/02 11:52:19;;;;;;;3.63;1.50;;;;;;;12.02;63.03;100944.34;5069073;28;20058;-84
2022/01/02 11:54:47;;;;;;;3.45;1.45;;;;;;;11.95;63.58;100943.63;5047695;28;20111;-84
2022/01/02 11:57:16;;;;;;;3.47;1.83;;;;;;;12.10;61.48;100937.19;5042523;28;20087;-84
2022/01/02 11:59:44;;;;;;;5.57;1.98;;;;;;;12.04;62.66;100935.59;5052464;28;20139;-84
2022/01/02 12:02:12;;;;;;;4.80;1.75;;;;;;;12.12;62.45;100938.03;5065718;28;20105;-83
2022/01/02 12:07:34;;;;;;;2.75;1.55;;;;;;;12.12;62.01;100935.41;5075887;28;20040;-83
2022/01/02 12:13:22;;;;;;;3.08;1.60;;;;;;;12.07;62.93;100948.53;5070984;28;20045;-84
2022/01/02 12:15:48;;;;;;;2.70;1.60;;;;;;;12.18;62.00;100943.09;5046783;28;21866;-84
2022/01/02 12:18:25;;;;;;;5.30;1.60;;;;;;;12.16;61.85;100933.56;5052472;28;20047;-84
2022/01/02 12:20:51;;;;;;;2.88;1.65;;;;;;;12.13;62.21;100920.66;5068273;28;20037;-84
2022/01/02 12:23:40;;;;;;;2.72;1.48;;;;;;;12.23;62.35;100933.41;5068964;28;20106;-84
2022/01/02 12:26:21;;;;;;;4.15;1.55;;;;;;;12.33;62.30;100937.50;5068677;28;20680;-84
2022/01/02 12:28:57;;;;;;;3.38;1.90;;;;;;;12.29;62.35;100937.59;5041732;28;20051;-84
2022/01/02 12:31:36;;;;;;;2.90;1.83;;;;;;;12.31;62.47;100928.84;5047991;28;20124;-84
2022/01/02 12:34:13;;;;;;;5.85;1.85;;;;;;;12.40;61.78;100936.41;5065704;28;20075;-84
2022/01/02 12:36:41;;;;;;;3.05;1.70;;;;;;;12.35;61.19;100933.09;5069593;28;20068;-84
2022/01/02 12:39:09;;;;;;;4.05;2.00;;;;;;;12.33;62.52;100939.22;5057679;28;20090;-84
2022/01/02 12:41:38;;;;;;;3.28;1.10;;;;;;;12.34;61.83;100948.75;5062422;28;20041;-84
2022/01/02 12:44:05;;;;;;;4.00;1.67;;;;;;;12.32;60.56;100940.13;5073066;28;20032;-84
2022/01/02 12:46:46;;;;;;;4.45;1.63;;;;;;;12.32;60.99;100934.91;5071455;28;20036;-84
2022/01/02 12:49:36;;;;;;;2.85;1.52;;;;;;;12.16;61.76;100937.03;5051103;28;20036;-84
2022/01/02 12:52:07;;;;;;;3.70;1.42;;;;;;;12.21;61.08;100931.72;5063144;28;20457;-84
2022/01/02 12:54:36;;;;;;;4.60;1.58;;;;;;;12.17;60.82;100930.94;5069129;28;20094;-84
2022/01/02 12:57:08;;;;;;;4.47;1.58;;;;;;;12.13;61.71;100921.47;5065664;28;20036;-84
2022/01/02 12:59:42;;;;;;;3.53;1.58;;;;;;;12.05;62.13;100918.22;5053400;28;20051;-84
2022/01/02 13:02:09;;;;;;;5.47;1.33;;;;;;;12.06;60.66;100912.13;5057573;28;20519;-84
2022/01/02 13:04:39;;;;;;;3.70;1.23;;;;;;;12.16;61.25;100904.91;5067274;28;20037;-84
2022/01/02 13:07:18;;;;;;;4.18;1.45;;;;;;;12.23;62.75;100914.31;5068811;28;20044;-84
2022/01/02 13:09:45;;;;;;;5.65;1.70;;;;;;;12.29;61.07;100917.63;5069933;28;20574;-84
2022/01/02 13:12:12;;;;;;;3.28;1.73;;;;;;;12.21;61.64;100916.09;5068280;28;20032;-83
2022/01/02 13:14:42;;;;;;;4.03;1.40;;;;;;;12.08;61.85;100928.56;5044976;28;20032;-84
2022/01/02 13:17:20;;;;;;;4.13;1.33;;;;;;;12.16;62.23;100918.81;5070476;28;20127;-84
2022/01/02 13:20:08;;;;;;;3.13;1.10;;;;;;;12.11;62.20;100924.13;5067964;28;20577;-84
2022/01/02 13:22:36;;;;;;;3.20;1.45;;;;;;;12.14;61.81;100931.03;5066929;28;20075;-84
2022/01/02 13:25:13;;;;;;;3.88;1.42;;;;;;;12.17;61.60;100920.53;5066961;28;20040;-84
2022/01/02 13:28:08;;;;;;;4.45;1.88;;;;;;;12.18;62.14;100924.00;5069860;28;20040;-84
2022/01/02 13:30:49;;;;;;;2.58;1.50;;;;;;;12.12;62.45;100925.00;5070274;28;20044;-84
2022/01/02 13:33:30;;;;;;;3.92;1.65;;;;;;;12.13;62.72;100934.50;5067711;28;20044;-84
2022/01/02 13:36:07;;;;;;;3.72;1.75;;;;;;;12.11;62.73;100937.16;5042981;28;20087;-84
2022/01/02 13:38:53;;;;;;;4.20;1.55;;;;;;;12.07;62.96;100930.31;5067475;28;20105;-84
2022/01/02 13:41:19;;;;;;;4.40;1.42;;;;;;;12.03;62.68;100933.03;5072501;28;20249;-84
2022/01/02 13:43:45;;;;;;;2.95;1.10;;;;;;;12.08;62.64;100928.56;5074179;28;20119;-84
2022/01/02 13:46:11;;;;;;;4.57;1.40;;;;;;;12.02;63.26;100921.75;5070060;28;20040;-84
2022/01/02 13:48:36;;;;;;;6.82;1.75;;;;;;;12.08;63.16;100921.63;5074896;28;20047;-84
2022/01/02 13:51:11;;;;;;;4.05;1.48;;;;;;;12.06;63.73;100922.53;5070524;28;20520;-84
2022/01/02 13:53:37;;;;;;;;;;;;;;;12.02;63.78;100926.97;5048153;28;20146;-84
2022/01/02 13:56:05;;;;;;;2.67;1.20;;;;;;;12.03;62.37;100918.28;5065941;28;19920;-84
2022/01/02 13:58:34;;;;;;;3.95;1.30;;;;;;;12.11;63.60;100921.53;5070827;28;20090;-83
2022/01/02 14:01:02;;;;;;;3.38;1.25;;;;;;;12.13;63.06;100914.53;5066875;28;20036;-84
2022/01/02 14:03:33;;;;;;;3.97;1.50;;;;;;;12.10;63.40;100912.00;5038888;28;20089;-84
2022/01/02 14:06:13;;;;;;;3.05;1.33;;;;;;;12.05;64.22;100916.47;5044132;28;20036;-84
2022/01/02 14:08:44;;;;;;;3.13;1.27;;;;;;;12.07;63.44;100908.63;5048926;28;20119;-84
2022/01/02 14:11:11;;;;;;;3.38;1.55;;;;;;;12.09;62.95;100912.06;5051661;28;20113;-84
2022/01/02 14:13:46;;;;;;;3.50;1.27;;;;;;;12.13;62.98;100913.66;5065073;28;20545;-84
2022/01/02 14:16:32;;;;;;;3.40;1.20;;;;;;;12.12;63.16;100919.78;5072633;28;20044;-84
2022/01/02 14:18:58;;;;;;;3.90;1.40;;;;;;;12.06;64.14;100927.75;5070881;28;20040;-84
2022/01/02 14:21:24;;;;;;;4.43;1.15;;;;;;;12.05;63.55;100933.84;5042565;28;20025;-83
2022/01/02 14:23:49;;;;;;;2.45;1.02;;;;;;;12.08;63.19;100931.16;5068049;28;20177;-84
2022/01/02 14:26:15;;;;;;;5.32;1.08;;;;;;;12.05;64.26;100933.84;5067390;28;20040;-84
2022/01/02 14:28:42;;;;;;;1.70;1.05;;;;;;;12.03;64.01;100935.63;5042011;28;20424;-84
2022/01/02 14:31:08;;;;;;;3.83;1.10;;;;;;;12.10;64.38;100921.56;5041245;28;20039;-84
2022/01/02 14:33:33;;;;;;;4.53;2.15;;;;;;;12.11;62.90;100920.69;5035655;28;20032;-84
2022/01/02 14:35:59;;;;;;;4.20;1.38;;;;;;;12.07;63.43;100932.91;5053519;28;20144;-84
2022/01/02 14:38:25;;;;;;;2.97;1.70;;;;;;;12.03;63.54;100939.09;5070086;28;20036;-84
2022/01/02 14:40:51;;;;;;;3.70;1.10;;;;;;;12.08;64.27;100946.78;5069793;28;20078;-84
2022/01/02 14:43:17;;;;;;;5.43;1.17;;;;;;;12.10;62.83;100942.38;5068506;28;20036;-83
2022/01/02 14:45:43;;;;;;;2.92;1.05;;;;;;;12.08;63.82;100947.66;5042426;28;20044;-84
2022/01/02 14:48:08;;;;;;;3.00;1.25;;;;;;;12.07;63.64;100958.09;5069427;28;20043;-84
2022/01/02 14:50:34;;;;;;;2.25;1.35;;;;;;;12.11;64.22;100957.13;5043668;28;20516;-84
2022/01/02 14:52:59;;;;;;;2.67;1.27;;;;;;;12.10;63.07;100961.47;5070139;28;20054;-84
2022/01/02 14:55:25;;;;;;;2.90;1.40;;;;;;;12.15;62.66;100952.72;5034206;28;20109;-84
2022/01/02 14:57:51;;;;;;;6.88;1.15;;;;;;;12.01;64.36;100953.03;5067258;28;20083;-84
2022/01/02 15:00:20;;;;;;;2.83;1.00;;;;;;;12.01;64.40;100951.28;5066292;28;20039;-84
2022/01/02 15:02:47;;;;;;;2.03;1.17;;;;;;;12.08;62.70;100946.78;5071386;28;20111;-84
2022/01/02 15:05:14;;;;;;;3.30;1.30;;;;;;;12.05;64.61;100947.72;5064671;28;20197;-84
2022/01/02 15:07:40;;;;;;;2.75;1.17;;;;;;;12.05;64.10;100946.88;5048558;28;20509;-84
2022/01/02 15:10:09;;;;;;;2.67;0.98;;;;;;;11.90;64.32;100950.69;5067686;28;20048;-84
2022/01/02 15:12:36;;;;;;;2.65;1.10;;;;;;;12.06;62.64;100951.19;5068356;28;20048;-84
2022/01/02 15:15:04;;;;;;;4.45;1.10;;;;;;;12.03;64.06;100948.66;5068997;28;20496;-84
2022/01/02 15:17:30;;;;;;;3.38;1.00;;;;;;;11.99;63.57;100955.69;5059648;28;20068;-84
2022/01/02 15:19:56;;;;;;;1.55;1.20;;;;;;;12.11;62.60;100951.91;5057915;28;20067;-84
2022/01/02 15:22:22;;;;;;;2.65;1.10;;;;;;;12.03;63.28;100951.25;5049992;28;20049;-84
2022/01/02 15:24:47;;;;;;;2.33;1.05;;;;;;;12.04;63.53;100952.94;5059922;28;20491;-84
2022/01/02 15:27:13;;;;;;;2.83;1.63;;;;;;;12.02;64.28;100947.78;5060105;28;20043;-83
2022/01/02 15:29:38;;;;;;;4.95;1.63;;;;;;;12.00;63.60;100957.41;5064942;28;20029;-84
2022/01/02 15:32:07;;;;;;;4.80;1.05;;;;;;;12.04;63.70;100958.16;5066904;28;20036;-84
2022/01/02 15:34:34;;;;;;;4.25;1.10;;;;;;;12.05;63.10;100952.94;5042175;28;20067;-84
2022/01/02 15:37:00;;;;;;;2.15;1.00;;;;;;;12.06;63.06;100959.00;5061343;28;20040;-84
2022/01/02 15:39:25;;;;;;;4.28;1.38;;;;;;;12.02;63.27;100952.16;5068558;28;20516;-84
2022/01/02 15:41:51;;;;;;;3.50;0.95;;;;;;;12.01;63.83;100958.22;5044960;28;20032;-84
2022/01/02 15:44:17;;;;;;;4.70;1.38;;;;;;;11.92;64.73;100958.44;5049474;28;20064;-84
2022/01/02 15:46:43;;;;;;;3.83;1.10;;;;;;;11.94;64.58;100960.16;5061637;28;20039;-85
2022/01/02 15:49:12;;;;;;;3.17;1.10;;;;;;;11.92;64.37;100961.06;5068839;28;20140;-84
2022/01/02 15:51:38;;;;;;;2.90;1.40;;;;;;;11.94;64.13;100962.75;5063557;28;20068;-84
2022/01/02 15:54:04;;;;;;;2.38;1.20;;;;;;;11.93;64.09;100973.19;5064742;28;20033;-84
2022/01/02 15:56:29;;;;;;;1.92;1.20;;;;;;;11.87;64.30;100973.31;5064584;28;20139;-84
2022/01/02 15:58:55;;;;;;;2.90;1.50;;;;;;;11.83;64.90;100980.34;5065310;28;20044;-84
2022/01/02 16:01:20;;;;;;;3.95;1.25;;;;;;;11.91;63.64;100980.19;5062463;28;20069;-84
2022/01/02 16:03:46;;;;;;;1.90;0.90;;;;;;;11.84;64.02;100973.41;5048198;28;20040;-84
2022/01/02 16:06:11;;;;;;;3.85;1.55;;;;;;;11.88;64.32;100965.50;5063147;28;20044;-83
2022/01/02 16:08:37;;;;;;;2.47;1.48;;;;;;;11.75;65.67;100973.59;5072951;28;20031;-84
2022/01/02 16:11:03;;;;;;;3.28;1.48;;;;;;;11.72;65.13;100969.31;5068954;28;20091;-84
2022/01/02 16:13:28;;;;;;;3.53;1.33;;;;;;;11.70;65.80;100973.72;5045862;28;20170;-83
2022/01/02 16:15:54;;;;;;;3.33;1.20;;;;;;;11.67;66.28;100970.31;5064287;28;21017;-83
2022/01/02 16:18:19;;;;;;;3.28;1.20;;;;;;;11.57;66.91;100967.91;5048413;28;20187;-83
2022/01/02 16:20:47;;;;;;;4.60;2.15;;;;;;;11.57;67.24;100967.06;5069639;28;20028;-83
2022/01/02 16:23:15;;;;;;;4.95;2.40;;;;;;;11.61;66.43;100960.06;5047166;28;20045;-84
2022/01/02 16:25:41;;;;;;;3.67;1.88;;;;;;;11.69;65.60;100951.19;5068993;28;20036;-84
2022/01/02 16:28:07;;;;;;;4.55;1.73;;;;;;;11.65;66.22;100948.69;5056434;28;20374;-83